createdAt,value
2019-03-31T00:02:01.208Z,101896.06
2019-03-31T00:04:29.497Z,101888.99
2019-03-31T00:06:57.815Z,101892.23
2019-03-31T00:09:26.747Z,101884.11
2019-03-31T00:11:55.126Z,101888.42
2019-03-31T00:14:23.470Z,101892.20
2019-03-31T00:16:52.562Z,101897.87
2019-03-31T00:19:21.077Z,101897.59
2019-03-31T00:21:49.498Z,101894.63
2019-03-31T00:24:17.830Z,101893.52
2019-03-31T00:26:46.119Z,101896.76
2019-03-31T00:29:14.536Z,101897.57
2019-03-31T00:31:42.853Z,101905.91
2019-03-31T00:34:11.162Z,101903.48
2019-03-31T00:36:39.533Z,101898.89
2019-03-31T00:39:07.851Z,101899.16
2019-03-31T00:41:36.133Z,101899.95
2019-03-31T00:44:04.590Z,101908.60
2019-03-31T00:46:33.006Z,101908.88
2019-03-31T00:49:01.860Z,101907.76
2019-03-31T00:51:30.150Z,101916.67
2019-03-31T00:53:58.455Z,101907.73
2019-03-31T00:56:26.881Z,101909.06
2019-03-31T00:58:55.214Z,101914.17
2019-03-31T01:01:36.214Z,101913.86
2019-03-31T01:03:59.082Z,101913.83
2019-03-31T01:06:27.570Z,101914.09
2019-03-31T01:08:56.060Z,101918.39
2019-03-31T01:11:24.926Z,101920.27
2019-03-31T01:13:53.350Z,101926.73
2019-03-31T01:16:21.707Z,101924.02
2019-03-31T01:18:50.170Z,101926.98
2019-03-31T01:21:18.513Z,101930.75
2019-03-31T01:23:46.797Z,101929.67
2019-03-31T01:26:17.292Z,101930.20
2019-03-31T01:28:45.688Z,101932.06
2019-03-31T01:31:14.013Z,101934.20
2019-03-31T01:33:42.414Z,101942.84
2019-03-31T01:36:10.876Z,101938.52
2019-03-31T01:38:39.257Z,101938.01
2019-03-31T01:41:07.839Z,101947.72
2019-03-31T01:43:36.153Z,101953.65
2019-03-31T01:46:06.108Z,101952.34
2019-03-31T01:48:34.393Z,101956.67
2019-03-31T01:51:02.747Z,101957.20
2019-03-31T01:53:31.071Z,101964.20
2019-03-31T01:55:59.652Z,101964.75
2019-03-31T01:58:28.743Z,101968.27
2019-03-31T02:00:58.664Z,101955.34
2019-03-31T02:03:27.083Z,101962.11
2019-03-31T02:05:58.183Z,101965.60
2019-03-31T02:08:27.133Z,101964.55
2019-03-31T02:10:55.469Z,101969.41
2019-03-31T02:13:23.751Z,101980.48
2019-03-31T02:15:52.045Z,101969.69
2019-03-31T02:18:20.388Z,101978.63
2019-03-31T02:20:48.672Z,101973.51
2019-03-31T02:23:17.028Z,101982.19
2019-03-31T02:25:46.031Z,101984.64
2019-03-31T02:28:14.424Z,101988.42
2019-03-31T02:30:42.705Z,101993.56
2019-03-31T02:33:11.132Z,101994.67
2019-03-31T02:35:39.435Z,101993.91
2019-03-31T02:38:07.834Z,101986.59
2019-03-31T02:40:36.351Z,101994.41
2019-03-31T02:43:05.978Z,101987.17
2019-03-31T02:45:34.276Z,101987.98
2019-03-31T02:48:02.893Z,101992.58
2019-03-31T02:50:46.173Z,101989.61
2019-03-31T02:53:15.448Z,101993.13
2019-03-31T02:55:44.544Z,101990.98
2019-03-31T02:58:14.297Z,101990.44
2019-03-31T03:00:42.590Z,101983.95
2019-03-31T03:03:11.197Z,101988.02
2019-03-31T03:05:40.460Z,101989.91
2019-03-31T03:08:10.012Z,101982.09
2019-03-31T03:10:38.596Z,101988.59
2019-03-31T03:13:07.174Z,101981.05
2019-03-31T03:15:44.352Z,101988.62
2019-03-31T03:18:12.710Z,101988.06
2019-03-31T03:20:41.751Z,101996.45
2019-03-31T03:23:10.030Z,102000.80
2019-03-31T03:25:54.480Z,101995.68
2019-03-31T03:28:08.496Z,102003.80
2019-03-31T03:30:36.933Z,102002.95
2019-03-31T03:33:16.546Z,102000.78
2019-03-31T03:35:36.708Z,101988.90
2019-03-31T03:38:04.988Z,101987.55
2019-03-31T03:40:33.400Z,101995.10
2019-03-31T03:43:01.708Z,101987.83
2019-03-31T03:45:30.424Z,101987.55
2019-03-31T03:47:58.712Z,101992.12
2019-03-31T03:50:27.091Z,101987.55
2019-03-31T03:52:55.466Z,101989.98
2019-03-31T03:55:24.150Z,101988.06
2019-03-31T03:57:52.531Z,101989.41
2019-03-31T04:00:20.820Z,101995.63
2019-03-31T04:02:49.333Z,101994.26
2019-03-31T04:05:17.601Z,101990.45
2019-03-31T04:07:45.899Z,101992.59
2019-03-31T04:10:44.802Z,101983.67
2019-03-31T04:13:13.111Z,101985.81
2019-03-31T04:15:41.806Z,101988.52
2019-03-31T04:18:10.300Z,101992.54
2019-03-31T04:20:39.554Z,101991.17
2019-03-31T04:23:08.077Z,101988.71
2019-03-31T04:25:36.355Z,101997.02
2019-03-31T04:28:04.664Z,102004.33
2019-03-31T04:30:33.621Z,102003.52
2019-03-31T04:33:02.053Z,102009.44
2019-03-31T04:35:30.363Z,102012.14
2019-03-31T04:37:58.634Z,102010.27
2019-03-31T04:40:26.966Z,102014.30
2019-03-31T04:42:55.296Z,102015.90
2019-03-31T04:45:24.275Z,102009.16
2019-03-31T04:47:52.564Z,102011.02
2019-03-31T04:50:21.189Z,102014.80
2019-03-31T04:52:49.533Z,102015.94
2019-03-31T04:55:17.823Z,102026.72
2019-03-31T04:57:46.404Z,102030.23
2019-03-31T05:00:14.747Z,102035.63
2019-03-31T05:02:43.054Z,102038.33
2019-03-31T05:05:11.379Z,102041.31
2019-03-31T05:07:39.708Z,102045.08
2019-03-31T05:10:07.999Z,102053.96
2019-03-31T05:12:36.402Z,102056.95
2019-03-31T05:15:05.082Z,102062.33
2019-03-31T05:17:35.780Z,102061.50
2019-03-31T05:20:04.448Z,102061.52
2019-03-31T05:22:32.748Z,102075.84
2019-03-31T05:25:01.256Z,102079.09
2019-03-31T05:27:29.538Z,102082.06
2019-03-31T05:29:57.892Z,102082.63
2019-03-31T05:32:26.311Z,102086.12
2019-03-31T05:34:54.670Z,102091.27
2019-03-31T05:37:23.072Z,102086.92
2019-03-31T05:39:51.611Z,102103.66
2019-03-31T05:42:20.196Z,102114.19
2019-03-31T05:44:48.613Z,102120.12
2019-03-31T05:47:16.896Z,102122.30
2019-03-31T05:49:45.263Z,102132.53
2019-03-31T05:52:13.615Z,102127.64
2019-03-31T05:54:42.294Z,102129.25
2019-03-31T05:57:10.678Z,102130.31
2019-03-31T05:59:38.962Z,102133.30
2019-03-31T06:02:07.269Z,102141.11
2019-03-31T06:04:36.246Z,102143.52
2019-03-31T06:07:04.556Z,102152.42
2019-03-31T06:09:32.887Z,102149.75
2019-03-31T06:12:01.191Z,102152.19
2019-03-31T06:14:29.469Z,102155.17
2019-03-31T06:16:57.813Z,102157.88
2019-03-31T06:19:26.109Z,102159.17
2019-03-31T06:21:54.395Z,102160.52
2019-03-31T06:24:22.738Z,102160.50
2019-03-31T06:26:51.016Z,102169.73
2019-03-31T06:29:19.299Z,102172.95
2019-03-31T06:31:47.793Z,102181.91
2019-03-31T06:34:16.081Z,102178.72
2019-03-31T06:36:44.538Z,102187.67
2019-03-31T06:39:12.850Z,102190.47
2019-03-31T06:41:41.165Z,102195.28
2019-03-31T06:44:09.446Z,102190.16
2019-03-31T06:46:37.868Z,102189.67
2019-03-31T06:49:06.438Z,102198.34
2019-03-31T06:51:34.811Z,102200.27
2019-03-31T06:54:03.130Z,102202.67
2019-03-31T06:56:31.402Z,102207.27
2019-03-31T06:58:59.781Z,102210.52
2019-03-31T07:01:28.114Z,102212.70
2019-03-31T07:03:56.973Z,102217.05
2019-03-31T07:06:26.898Z,102218.17
2019-03-31T07:08:55.249Z,102220.97
2019-03-31T07:11:23.717Z,102224.27
2019-03-31T07:13:52.059Z,102230.78
2019-03-31T07:16:20.445Z,102233.86
2019-03-31T07:18:48.725Z,102229.33
2019-03-31T07:21:17.051Z,102240.98
2019-03-31T07:23:45.400Z,102246.46
2019-03-31T07:26:14.350Z,102247.03
2019-03-31T07:28:42.692Z,102248.90
2019-03-31T07:31:11.004Z,102245.15
2019-03-31T07:33:39.549Z,102252.71
2019-03-31T07:36:07.891Z,102257.83
2019-03-31T07:38:39.212Z,102255.70
2019-03-31T07:41:13.127Z,102268.94
2019-03-31T07:43:38.052Z,102270.84
2019-03-31T07:46:06.370Z,102275.71
2019-03-31T07:48:34.662Z,102269.54
2019-03-31T07:51:03.122Z,102270.65
2019-03-31T07:53:31.408Z,102263.36
2019-03-31T07:55:59.685Z,102273.38
2019-03-31T07:58:28.723Z,102273.64
2019-03-31T08:00:56.972Z,102283.41
2019-03-31T08:03:25.251Z,102283.73
2019-03-31T08:05:53.595Z,102282.09
2019-03-31T08:08:22.086Z,102283.78
2019-03-31T08:10:51.142Z,102286.72
2019-03-31T08:13:19.417Z,102293.48
2019-03-31T08:15:47.828Z,102291.88
2019-03-31T08:18:16.106Z,102292.45
2019-03-31T08:20:45.280Z,102287.61
2019-03-31T08:23:13.617Z,102300.39
2019-03-31T08:25:41.937Z,102295.30
2019-03-31T08:28:10.414Z,102297.25
2019-03-31T08:30:38.730Z,102305.70
2019-03-31T08:33:07.003Z,102299.02
2019-03-31T08:35:46.566Z,102298.24
2019-03-31T08:38:05.387Z,102292.84
2019-03-31T08:40:33.668Z,102302.36
2019-03-31T08:43:02.159Z,102309.17
2019-03-31T08:45:30.672Z,102312.98
2019-03-31T08:47:58.979Z,102314.88
2019-03-31T08:50:27.285Z,102324.66
2019-03-31T08:52:55.950Z,102323.55
2019-03-31T08:55:24.293Z,102334.67
2019-03-31T08:57:52.604Z,102331.41
2019-03-31T09:00:25.284Z,102334.95
2019-03-31T09:02:53.604Z,102338.47
2019-03-31T09:05:21.943Z,102335.23
2019-03-31T09:07:50.353Z,102351.51
2019-03-31T09:10:18.634Z,102350.39
2019-03-31T09:12:48.734Z,102341.45
2019-03-31T09:15:16.981Z,102351.48
2019-03-31T09:17:45.346Z,102350.42
2019-03-31T09:20:16.044Z,102357.18
2019-03-31T09:22:44.444Z,102353.95
2019-03-31T09:25:12.758Z,102359.63
2019-03-31T09:27:41.034Z,102354.73
2019-03-31T09:30:10.901Z,102350.94
2019-03-31T09:32:39.232Z,102353.38
2019-03-31T09:35:08.552Z,102356.06
2019-03-31T09:37:36.858Z,102360.67
2019-03-31T09:40:07.863Z,102360.66
2019-03-31T09:42:36.229Z,102359.23
2019-03-31T09:45:04.968Z,102370.38
2019-03-31T09:47:33.284Z,102364.46
2019-03-31T09:50:01.626Z,102372.05
2019-03-31T09:52:30.052Z,102362.04
2019-03-31T09:54:58.437Z,102369.64
2019-03-31T09:57:26.741Z,102378.91
2019-03-31T09:59:55.027Z,102372.92
2019-03-31T10:02:23.344Z,102367.20
2019-03-31T10:04:51.634Z,102362.55
2019-03-31T10:07:23.766Z,102372.55
2019-03-31T10:09:50.760Z,102372.55
2019-03-31T10:12:19.343Z,102379.63
2019-03-31T10:14:47.652Z,102379.05
2019-03-31T10:17:16.014Z,102376.55
2019-03-31T10:19:44.306Z,102378.05
2019-03-31T10:22:12.643Z,102380.72
2019-03-31T10:24:41.032Z,102388.41
2019-03-31T10:27:09.616Z,102382.02
2019-03-31T10:29:38.035Z,102388.72
2019-03-31T10:32:06.325Z,102384.33
2019-03-31T10:34:34.604Z,102381.30
2019-03-31T10:37:03.082Z,102384.16
2019-03-31T10:39:32.164Z,102384.30
2019-03-31T10:42:00.609Z,102391.27
2019-03-31T10:44:29.026Z,102386.68
2019-03-31T10:46:58.942Z,102388.12
2019-03-31T10:49:27.278Z,102379.14
2019-03-31T10:51:56.583Z,102383.05
2019-03-31T10:54:24.979Z,102390.73
2019-03-31T10:56:53.406Z,102387.17
2019-03-31T10:59:21.723Z,102389.73
2019-03-31T11:01:50.052Z,102385.56
2019-03-31T11:04:18.413Z,102380.46
2019-03-31T11:06:58.226Z,102381.45
2019-03-31T11:09:16.913Z,102380.71
2019-03-31T11:11:45.320Z,102373.23
2019-03-31T11:14:13.601Z,102377.39
2019-03-31T11:16:42.221Z,102376.74
2019-03-31T11:19:10.632Z,102372.83
2019-03-31T11:21:40.695Z,102381.34
2019-03-31T11:24:09.409Z,102385.53
2019-03-31T11:26:37.796Z,102384.52
2019-03-31T11:29:06.276Z,102384.13
2019-03-31T11:31:34.685Z,102393.66
2019-03-31T11:34:02.965Z,102394.94
2019-03-31T11:36:31.304Z,102394.02
2019-03-31T11:38:59.614Z,102398.25
2019-03-31T11:41:27.893Z,102391.84
2019-03-31T11:43:57.013Z,102392.56
2019-03-31T11:46:25.288Z,102398.98
2019-03-31T11:48:53.608Z,102400.16
2019-03-31T11:51:22.035Z,102409.10
2019-03-31T11:53:50.364Z,102410.05
2019-03-31T11:56:18.754Z,102399.09
2019-03-31T11:58:47.169Z,102392.89
2019-03-31T12:01:15.679Z,102400.61
2019-03-31T12:03:43.980Z,102395.31
2019-03-31T12:06:12.262Z,102412.72
2019-03-31T12:08:40.672Z,102395.41
2019-03-31T12:11:09.519Z,102388.22
2019-03-31T12:13:37.819Z,102382.77
2019-03-31T12:16:06.209Z,102383.77
2019-03-31T12:18:34.490Z,102376.90
2019-03-31T12:21:02.819Z,102382.20
2019-03-31T12:23:31.104Z,102373.36
2019-03-31T12:25:59.710Z,102372.35
2019-03-31T12:28:28.095Z,102374.43
2019-03-31T12:30:56.372Z,102369.89
2019-03-31T12:33:24.675Z,102373.19
2019-03-31T12:35:52.955Z,102378.07
2019-03-31T12:38:21.925Z,102379.13
2019-03-31T12:40:50.212Z,102370.29
2019-03-31T12:43:18.516Z,102367.64
2019-03-31T12:45:46.822Z,102370.44
2019-03-31T12:48:15.132Z,102370.02
2019-03-31T12:50:44.117Z,102378.52
2019-03-31T12:53:12.469Z,102378.44
2019-03-31T12:55:40.874Z,102367.02
2019-03-31T12:58:09.259Z,102368.80
2019-03-31T13:00:37.573Z,102364.18
2019-03-31T13:03:05.859Z,102363.09
2019-03-31T13:05:34.740Z,102369.88
2019-03-31T13:08:03.114Z,102372.44
2019-03-31T13:10:31.467Z,102361.94
2019-03-31T13:12:59.739Z,102366.66
2019-03-31T13:15:28.729Z,102371.69
2019-03-31T13:17:57.149Z,102370.22
2019-03-31T13:20:25.439Z,102369.52
2019-03-31T13:22:53.733Z,102374.58
2019-03-31T13:25:22.080Z,102359.45
2019-03-31T13:27:50.455Z,102366.53
2019-03-31T13:30:21.757Z,102358.69
2019-03-31T13:32:49.986Z,102363.13
2019-03-31T13:35:18.269Z,102365.25
2019-03-31T13:37:46.598Z,102361.64
2019-03-31T13:40:15.766Z,102361.50
2019-03-31T13:42:44.320Z,102365.34
2019-03-31T13:45:12.672Z,102361.94
2019-03-31T13:47:41.034Z,102362.52
2019-03-31T13:50:09.353Z,102359.51
2019-03-31T13:52:37.697Z,102365.44
2019-03-31T13:55:07.264Z,102364.02
2019-03-31T13:57:36.252Z,102353.47
2019-03-31T14:00:07.211Z,102353.13
2019-03-31T14:02:35.500Z,102348.92
2019-03-31T14:05:04.944Z,102347.17
2019-03-31T14:07:33.601Z,102351.50
2019-03-31T14:10:01.882Z,102348.63
2019-03-31T14:12:30.293Z,102347.61
2019-03-31T14:14:58.645Z,102350.56
2019-03-31T14:17:26.924Z,102354.79
2019-03-31T14:19:55.233Z,102351.98
2019-03-31T14:22:24.083Z,102352.57
2019-03-31T14:24:52.385Z,102343.12
2019-03-31T14:27:20.659Z,102339.42
2019-03-31T14:29:49.878Z,102342.16
2019-03-31T14:32:18.276Z,102343.71
2019-03-31T14:34:46.567Z,102350.37
2019-03-31T14:37:14.864Z,102340.12
2019-03-31T14:39:43.276Z,102351.36
2019-03-31T14:42:11.549Z,102360.52
2019-03-31T14:44:39.826Z,102355.97
2019-03-31T14:47:08.130Z,102356.80
2019-03-31T14:49:37.206Z,102353.23
2019-03-31T14:52:05.602Z,102353.38
2019-03-31T14:54:33.888Z,102360.33
2019-03-31T14:57:02.216Z,102368.03
2019-03-31T14:59:30.524Z,102359.27
2019-03-31T15:01:58.872Z,102361.34
2019-03-31T15:04:27.385Z,102365.12
2019-03-31T15:06:55.676Z,102367.92
2019-03-31T15:09:23.958Z,102369.62
2019-03-31T15:11:52.302Z,102366.30
2019-03-31T15:14:21.276Z,102365.20
2019-03-31T15:16:49.559Z,102359.65
2019-03-31T15:19:17.905Z,102365.37
2019-03-31T15:21:46.204Z,102364.88
2019-03-31T15:24:14.489Z,102372.26
2019-03-31T15:26:42.824Z,102370.11
2019-03-31T15:29:11.103Z,102369.44
2019-03-31T15:31:39.395Z,102371.66
2019-03-31T15:34:07.843Z,102369.14
2019-03-31T15:36:36.145Z,102367.59
2019-03-31T15:39:09.554Z,102366.32
2019-03-31T15:41:37.854Z,102367.06
2019-03-31T15:44:06.227Z,102375.63
2019-03-31T15:46:34.531Z,102375.42
2019-03-31T15:49:02.841Z,102386.19
2019-03-31T15:51:31.198Z,102387.38
2019-03-31T15:53:59.492Z,102384.02
2019-03-31T15:56:27.795Z,102386.02
2019-03-31T15:58:56.098Z,102388.81
2019-03-31T16:01:24.576Z,102387.38
2019-03-31T16:03:52.880Z,102386.94
2019-03-31T16:06:21.243Z,102394.95
2019-03-31T16:08:49.654Z,102388.98
2019-03-31T16:11:17.934Z,102386.84
2019-03-31T16:13:46.283Z,102388.27
2019-03-31T16:16:15.370Z,102376.03
2019-03-31T16:18:43.648Z,102386.39
2019-03-31T16:21:12.061Z,102388.30
2019-03-31T16:23:40.347Z,102386.41
2019-03-31T16:26:08.761Z,102385.05
2019-03-31T16:28:37.269Z,102388.05
2019-03-31T16:31:05.555Z,102383.99
2019-03-31T16:33:33.881Z,102384.28
2019-03-31T16:36:02.168Z,102389.46
2019-03-31T16:38:30.455Z,102382.16
2019-03-31T16:40:58.771Z,102372.92
2019-03-31T16:43:27.058Z,102381.34
2019-03-31T16:45:55.446Z,102385.42
2019-03-31T16:48:23.738Z,102394.37
2019-03-31T16:50:52.034Z,102387.82
2019-03-31T16:53:20.368Z,102384.28
2019-03-31T16:55:49.221Z,102385.08
2019-03-31T16:58:17.611Z,102385.07
2019-03-31T17:00:45.928Z,102389.93
2019-03-31T17:03:14.218Z,102394.48
2019-03-31T17:05:42.529Z,102398.55
2019-03-31T17:08:10.807Z,102399.63
2019-03-31T17:10:39.219Z,102392.52
2019-03-31T17:13:07.496Z,102396.55
2019-03-31T17:15:35.851Z,102397.08
2019-03-31T17:18:04.163Z,102407.62
2019-03-31T17:20:32.437Z,102403.99
2019-03-31T17:23:00.739Z,102399.63
2019-03-31T17:25:29.020Z,102404.99
2019-03-31T17:27:57.327Z,102410.11
2019-03-31T17:30:25.625Z,102413.61
2019-03-31T17:32:53.937Z,102410.84
2019-03-31T17:35:22.214Z,102413.44
2019-03-31T17:37:50.726Z,102421.47
2019-03-31T17:40:19.000Z,102419.78
2019-03-31T17:42:47.311Z,102425.70
2019-03-31T17:45:17.280Z,102428.23
2019-03-31T17:47:45.690Z,102426.61
2019-03-31T17:50:14.771Z,102426.41
2019-03-31T17:52:43.187Z,102427.42
2019-03-31T17:55:11.485Z,102421.97
2019-03-31T17:57:42.367Z,102434.13
2019-03-31T18:00:10.447Z,102433.07
2019-03-31T18:02:39.057Z,102435.12
2019-03-31T18:05:08.268Z,102440.78
2019-03-31T18:07:37.462Z,102436.33
2019-03-31T18:10:20.130Z,102439.03
2019-03-31T18:12:37.624Z,102444.41
2019-03-31T18:15:06.584Z,102451.16
2019-03-31T18:17:35.107Z,102451.42
2019-03-31T18:20:04.518Z,102462.05
2019-03-31T18:22:32.832Z,102457.39
2019-03-31T18:25:01.298Z,102460.31
2019-03-31T18:27:29.610Z,102461.49
2019-03-31T18:29:57.999Z,102456.60
2019-03-31T18:32:26.338Z,102461.61
2019-03-31T18:34:54.685Z,102454.97
2019-03-31T18:37:22.964Z,102459.97
2019-03-31T18:39:51.293Z,102463.61
2019-03-31T18:42:19.574Z,102462.73
2019-03-31T18:44:47.856Z,102466.98
2019-03-31T18:47:16.262Z,102472.77
2019-03-31T18:49:44.535Z,102471.25
2019-03-31T18:52:12.931Z,102474.67
2019-03-31T18:54:58.772Z,102479.18
2019-03-31T18:57:46.683Z,102475.50
2019-03-31T19:00:32.779Z,102475.16
2019-03-31T19:03:02.741Z,102479.93
2019-03-31T19:05:32.663Z,102482.92
2019-03-31T19:08:02.584Z,102484.63
2019-03-31T19:10:32.517Z,102485.48
2019-03-31T19:13:11.099Z,102476.19
2019-03-31T19:15:49.817Z,102477.09
2019-03-31T19:18:25.488Z,102477.09
2019-03-31T19:21:11.945Z,102479.44
2019-03-31T19:23:53.875Z,102473.70
2019-03-31T19:26:48.369Z,102482.98
2019-03-31T19:29:10.424Z,102486.66
2019-03-31T19:31:56.889Z,102482.45
2019-03-31T19:34:35.920Z,102482.45
2019-03-31T19:37:11.962Z,102479.20
2019-03-31T19:39:41.889Z,102481.84
2019-03-31T19:42:14.481Z,102494.69
2019-03-31T19:44:57.289Z,102493.05
2019-03-31T19:47:27.206Z,102491.08
2019-03-31T19:50:00.349Z,102491.08
2019-03-31T19:52:45.148Z,102481.03
2019-03-31T19:55:21.307Z,102492.69
2019-03-31T19:58:09.348Z,102493.73
2019-03-31T20:00:42.204Z,102501.23
2019-03-31T20:03:14.536Z,102510.89
2019-03-31T20:05:44.458Z,102510.89
2019-03-31T20:08:30.743Z,102499.68
2019-03-31T20:11:00.673Z,102509.42
2019-03-31T20:13:46.917Z,102509.84
2019-03-31T20:16:23.008Z,102508.05
2019-03-31T20:18:55.784Z,102508.05
2019-03-31T20:21:34.474Z,102510.92
2019-03-31T20:24:20.259Z,102519.31
2019-03-31T20:26:50.893Z,102519.31
2019-03-31T20:29:23.617Z,102515.03
2019-03-31T20:31:53.583Z,102519.00
2019-03-31T20:34:41.502Z,102519.00
2019-03-31T20:37:17.173Z,102506.70
2019-03-31T20:40:03.477Z,102506.77
2019-03-31T20:42:39.625Z,102512.45
2019-03-31T20:45:07.975Z,102512.77
2019-03-31T20:47:36.250Z,102512.94
2019-03-31T20:50:06.612Z,102506.38
2019-03-31T20:52:34.886Z,102506.38
2019-03-31T20:55:15.639Z,102505.98
2019-03-31T20:57:33.672Z,102512.17
2019-03-31T21:00:01.951Z,102505.62
2019-03-31T21:02:30.280Z,102506.66
2019-03-31T21:04:58.557Z,102496.31
2019-03-31T21:07:26.946Z,102506.59
2019-03-31T21:09:55.245Z,102509.28
2019-03-31T21:12:23.522Z,102504.20
2019-03-31T21:14:51.887Z,102508.41
2019-03-31T21:17:20.180Z,102502.97
2019-03-31T21:19:48.676Z,102499.98
2019-03-31T21:22:16.976Z,102496.18
2019-03-31T21:24:45.254Z,102500.45
2019-03-31T21:27:13.589Z,102507.91
2019-03-31T21:29:41.993Z,102499.77
2019-03-31T21:32:10.359Z,102503.00
2019-03-31T21:34:38.659Z,102503.00
2019-03-31T21:37:07.079Z,102507.94
2019-03-31T21:39:35.679Z,102510.05
2019-03-31T21:42:03.950Z,102505.58
2019-03-31T21:44:32.271Z,102508.80
2019-03-31T21:47:00.557Z,102506.21
2019-03-31T21:49:28.827Z,102506.64
2019-03-31T21:51:57.162Z,102509.06
2019-03-31T21:54:25.443Z,102508.69
2019-03-31T21:56:53.719Z,102508.69
2019-03-31T21:59:22.015Z,102511.30
2019-03-31T22:01:50.352Z,102507.58
2019-03-31T22:04:18.894Z,102505.33
2019-03-31T22:06:47.170Z,102509.08
2019-03-31T22:09:15.451Z,102504.75
2019-03-31T22:11:43.800Z,102507.94
2019-03-31T22:14:12.169Z,102506.25
2019-03-31T22:16:40.647Z,102509.17
2019-03-31T22:19:09.069Z,102505.95
2019-03-31T22:21:37.484Z,102509.38
2019-03-31T22:24:06.096Z,102506.57
2019-03-31T22:26:34.478Z,102504.31
2019-03-31T22:29:02.994Z,102502.62
2019-03-31T22:31:31.334Z,102505.67
2019-03-31T22:33:59.605Z,102508.36
2019-03-31T22:36:27.953Z,102503.98
2019-03-31T22:38:56.242Z,102499.27
2019-03-31T22:41:24.524Z,102501.37
2019-03-31T22:43:52.851Z,102497.28
2019-03-31T22:46:21.201Z,102502.34
2019-03-31T22:48:49.788Z,102498.01
2019-03-31T22:51:18.081Z,102499.81
2019-03-31T22:53:46.387Z,102494.06
2019-03-31T22:56:14.713Z,102496.30
2019-03-31T22:58:43.125Z,102493.61
2019-03-31T23:01:11.395Z,102496.75
2019-03-31T23:03:39.663Z,102488.55
2019-03-31T23:06:07.972Z,102494.22
2019-03-31T23:08:36.269Z,102494.53
2019-03-31T23:11:04.588Z,102492.34
2019-03-31T23:13:32.854Z,102493.56
2019-03-31T23:16:01.176Z,102487.20
2019-03-31T23:18:29.760Z,102492.50
2019-03-31T23:20:58.000Z,102488.31
2019-03-31T23:23:26.304Z,102488.77
2019-03-31T23:25:54.837Z,102478.49
2019-03-31T23:28:23.273Z,102485.27
2019-03-31T23:30:51.621Z,102492.28
2019-03-31T23:33:19.894Z,102489.67
2019-03-31T23:35:48.192Z,102493.08
2019-03-31T23:38:16.652Z,102484.88
2019-03-31T23:40:45.028Z,102487.70
2019-03-31T23:43:13.323Z,102483.59
2019-03-31T23:45:41.634Z,102485.70
2019-03-31T23:48:09.967Z,102480.03
2019-03-31T23:50:39.012Z,102481.59
2019-03-31T23:53:07.315Z,102482.32
2019-03-31T23:55:35.936Z,102490.05
2019-03-31T23:58:04.338Z,102481.58
